sensor_id;sensor_type;location;lat;lon;timestamp;P1;durP1;ratioP1;P2;durP2;ratioP2
61905;SDS011;47863;55.766;37.672;2024-02-04T00:00:29;14.18;;;5.15;;
61905;SDS011;47863;55.766;37.672;2024-02-04T00:02:55;11.18;;;4.95;;
61905;SDS011;47863;55.766;37.672;2024-02-04T00:05:20;12.02;;;5.25;;
61905;SDS011;47863;55.766;37.672;2024-02-04T00:07:46;9.35;;;3.75;;
61905;SDS011;47863;55.766;37.672;2024-02-04T00:10:12;10.82;;;5.03;;
61905;SDS011;47863;55.766;37.672;2024-02-04T00:12:38;12.23;;;5.68;;
61905;SDS011;47863;55.766;37.672;2024-02-04T00:15:04;9.65;;;4.03;;
61905;SDS011;47863;55.766;37.672;2024-02-04T00:17:30;3.70;;;1.95;;
61905;SDS011;47863;55.766;37.672;2024-02-04T00:19:58;10.48;;;4.85;;
61905;SDS011;47863;55.766;37.672;2024-02-04T00:22:25;12.07;;;4.97;;
61905;SDS011;47863;55.766;37.672;2024-02-04T00:24:50;9.40;;;3.92;;
61905;SDS011;47863;55.766;37.672;2024-02-04T00:27:16;12.02;;;4.28;;
61905;SDS011;47863;55.766;37.672;2024-02-04T00:29:42;11.40;;;4.85;;
61905;SDS011;47863;55.766;37.672;2024-02-04T00:32:07;12.20;;;4.30;;
61905;SDS011;47863;55.766;37.672;2024-02-04T00:34:33;9.50;;;4.35;;
61905;SDS011;47863;55.766;37.672;2024-02-04T00:36:58;9.32;;;4.38;;
61905;SDS011;47863;55.766;37.672;2024-02-04T00:39:25;8.23;;;3.47;;
61905;SDS011;47863;55.766;37.672;2024-02-04T00:41:51;8.90;;;3.90;;
61905;SDS011;47863;55.766;37.672;2024-02-04T00:44:16;9.18;;;4.63;;
61905;SDS011;47863;55.766;37.672;2024-02-04T00:46:42;10.10;;;4.65;;
61905;SDS011;47863;55.766;37.672;2024-02-04T00:49:08;7.38;;;3.78;;
61905;SDS011;47863;55.766;37.672;2024-02-04T00:51:34;10.23;;;4.47;;
61905;SDS011;47863;55.766;37.672;2024-02-04T00:53:59;8.45;;;3.70;;
61905;SDS011;47863;55.766;37.672;2024-02-04T00:56:25;9.02;;;4.20;;
61905;SDS011;47863;55.766;37.672;2024-02-04T00:58:50;7.93;;;3.20;;
61905;SDS011;47863;55.766;37.672;2024-02-04T01:01:16;9.75;;;4.40;;
61905;SDS011;47863;55.766;37.672;2024-02-04T01:03:42;6.82;;;2.95;;
61905;SDS011;47863;55.766;37.672;2024-02-04T01:06:07;8.25;;;4.18;;
61905;SDS011;47863;55.766;37.672;2024-02-04T01:08:33;10.57;;;4.43;;
61905;SDS011;47863;55.766;37.672;2024-02-04T01:11:00;9.50;;;4.13;;
61905;SDS011;47863;55.766;37.672;2024-02-04T01:13:27;10.60;;;4.53;;
61905;SDS011;47863;55.766;37.672;2024-02-04T01:15:53;6.47;;;3.58;;
61905;SDS011;47863;55.766;37.672;2024-02-04T01:18:18;6.50;;;2.97;;
61905;SDS011;47863;55.766;37.672;2024-02-04T01:20:44;8.60;;;3.75;;
61905;SDS011;47863;55.766;37.672;2024-02-04T01:23:09;6.80;;;3.30;;
61905;SDS011;47863;55.766;37.672;2024-02-04T01:25:35;5.50;;;2.55;;
61905;SDS011;47863;55.766;37.672;2024-02-04T01:28:01;8.43;;;3.15;;
61905;SDS011;47863;55.766;37.672;2024-02-04T01:30:26;7.50;;;3.40;;
61905;SDS011;47863;55.766;37.672;2024-02-04T01:32:53;8.60;;;3.92;;
61905;SDS011;47863;55.766;37.672;2024-02-04T01:35:19;9.07;;;4.05;;
61905;SDS011;47863;55.766;37.672;2024-02-04T01:37:45;9.88;;;4.03;;
61905;SDS011;47863;55.766;37.672;2024-02-04T01:40:13;7.25;;;3.45;;
61905;SDS011;47863;55.766;37.672;2024-02-04T01:42:39;8.80;;;4.13;;
61905;SDS011;47863;55.766;37.672;2024-02-04T01:45:05;8.05;;;3.35;;
61905;SDS011;47863;55.766;37.672;2024-02-04T01:47:31;7.03;;;3.10;;
61905;SDS011;47863;55.766;37.672;2024-02-04T01:49:56;6.03;;;2.80;;
61905;SDS011;47863;55.766;37.672;2024-02-04T01:52:22;6.50;;;2.67;;
61905;SDS011;47863;55.766;37.672;2024-02-04T01:54:48;8.63;;;3.08;;
61905;SDS011;47863;55.766;37.672;2024-02-04T01:57:15;6.90;;;3.15;;
61905;SDS011;47863;55.766;37.672;2024-02-04T01:59:42;5.45;;;2.50;;
61905;SDS011;47863;55.766;37.672;2024-02-04T02:02:09;7.05;;;3.20;;
61905;SDS011;47863;55.766;37.672;2024-02-04T02:04:35;5.45;;;2.70;;
61905;SDS011;47863;55.766;37.672;2024-02-04T02:07:00;5.72;;;2.45;;
61905;SDS011;47863;55.766;37.672;2024-02-04T02:09:27;5.00;;;2.47;;
61905;SDS011;47863;55.766;37.672;2024-02-04T02:12:01;7.15;;;2.53;;
61905;SDS011;47863;55.766;37.672;2024-02-04T02:14:33;6.32;;;2.60;;
61905;SDS011;47863;55.766;37.672;2024-02-04T02:17:06;6.68;;;2.80;;
61905;SDS011;47863;55.766;37.672;2024-02-04T02:20:05;5.35;;;2.60;;
61905;SDS011;47863;55.766;37.672;2024-02-04T02:22:50;6.25;;;2.78;;
61905;SDS011;47863;55.766;37.672;2024-02-04T02:25:26;3.90;;;1.90;;
61905;SDS011;47863;55.766;37.672;2024-02-04T02:27:52;7.03;;;2.45;;
61905;SDS011;47863;55.766;37.672;2024-02-04T02:30:18;5.93;;;2.67;;
61905;SDS011;47863;55.766;37.672;2024-02-04T02:32:44;5.63;;;2.22;;
61905;SDS011;47863;55.766;37.672;2024-02-04T02:35:13;4.45;;;2.28;;
61905;SDS011;47863;55.766;37.672;2024-02-04T02:40:25;6.10;;;2.72;;
61905;SDS011;47863;55.766;37.672;2024-02-04T02:43:05;4.72;;;2.40;;
61905;SDS011;47863;55.766;37.672;2024-02-04T02:45:31;4.68;;;2.40;;
61905;SDS011;47863;55.766;37.672;2024-02-04T02:47:58;6.13;;;2.72;;
61905;SDS011;47863;55.766;37.672;2024-02-04T02:50:24;5.57;;;2.95;;
61905;SDS011;47863;55.766;37.672;2024-02-04T02:52:49;4.75;;;2.22;;
61905;SDS011;47863;55.766;37.672;2024-02-04T02:55:15;3.47;;;1.90;;
61905;SDS011;47863;55.766;37.672;2024-02-04T02:57:41;4.30;;;2.35;;
61905;SDS011;47863;55.766;37.672;2024-02-04T03:00:07;5.32;;;2.65;;
61905;SDS011;47863;55.766;37.672;2024-02-04T03:02:34;5.78;;;2.58;;
61905;SDS011;47863;55.766;37.672;2024-02-04T03:05:00;4.57;;;1.80;;
61905;SDS011;47863;55.766;37.672;2024-02-04T03:07:26;4.43;;;2.17;;
61905;SDS011;47863;55.766;37.672;2024-02-04T03:09:52;10.68;;;4.18;;
61905;SDS011;47863;55.766;37.672;2024-02-04T03:12:19;4.68;;;2.38;;
61905;SDS011;47863;55.766;37.672;2024-02-04T03:14:45;5.28;;;2.17;;
61905;SDS011;47863;55.766;37.672;2024-02-04T03:17:10;2.90;;;1.60;;
61905;SDS011;47863;55.766;37.672;2024-02-04T03:19:37;4.07;;;2.53;;
61905;SDS011;47863;55.766;37.672;2024-02-04T03:22:03;4.40;;;1.77;;
61905;SDS011;47863;55.766;37.672;2024-02-04T03:24:29;4.57;;;2.10;;
61905;SDS011;47863;55.766;37.672;2024-02-04T03:26:54;4.53;;;2.03;;
61905;SDS011;47863;55.766;37.672;2024-02-04T03:29:20;4.75;;;1.88;;
61905;SDS011;47863;55.766;37.672;2024-02-04T03:31:45;2.92;;;1.58;;
61905;SDS011;47863;55.766;37.672;2024-02-04T03:34:11;4.55;;;1.80;;
61905;SDS011;47863;55.766;37.672;2024-02-04T03:36:37;3.30;;;1.48;;
61905;SDS011;47863;55.766;37.672;2024-02-04T03:39:03;3.35;;;1.30;;
61905;SDS011;47863;55.766;37.672;2024-02-04T03:41:29;3.05;;;1.42;;
61905;SDS011;47863;55.766;37.672;2024-02-04T03:43:55;3.38;;;1.27;;
61905;SDS011;47863;55.766;37.672;2024-02-04T03:46:20;2.03;;;1.05;;
61905;SDS011;47863;55.766;37.672;2024-02-04T03:48:46;3.45;;;1.20;;
61905;SDS011;47863;55.766;37.672;2024-02-04T03:51:15;1.95;;;1.20;;
61905;SDS011;47863;55.766;37.672;2024-02-04T03:53:42;2.63;;;1.13;;
61905;SDS011;47863;55.766;37.672;2024-02-04T03:56:08;1.88;;;1.00;;
61905;SDS011;47863;55.766;37.672;2024-02-04T03:58:34;2.40;;;0.95;;
61905;SDS011;47863;55.766;37.672;2024-02-04T04:01:00;1.77;;;1.00;;
61905;SDS011;47863;55.766;37.672;2024-02-04T04:03:25;1.55;;;0.80;;
61905;SDS011;47863;55.766;37.672;2024-02-04T04:05:52;1.75;;;0.90;;
61905;SDS011;47863;55.766;37.672;2024-02-04T04:08:18;1.35;;;0.82;;
61905;SDS011;47863;55.766;37.672;2024-02-04T04:10:44;2.08;;;0.80;;
61905;SDS011;47863;55.766;37.672;2024-02-04T04:13:10;1.30;;;0.70;;
61905;SDS011;47863;55.766;37.672;2024-02-04T04:15:36;1.45;;;0.80;;
61905;SDS011;47863;55.766;37.672;2024-02-04T04:18:02;0.52;;;0.40;;
61905;SDS011;47863;55.766;37.672;2024-02-04T04:20:28;2.20;;;0.98;;
61905;SDS011;47863;55.766;37.672;2024-02-04T04:22:54;1.45;;;0.57;;
61905;SDS011;47863;55.766;37.672;2024-02-04T04:25:20;1.20;;;0.77;;
61905;SDS011;47863;55.766;37.672;2024-02-04T04:27:45;1.13;;;0.70;;
61905;SDS011;47863;55.766;37.672;2024-02-04T04:30:11;1.58;;;0.70;;
61905;SDS011;47863;55.766;37.672;2024-02-04T04:32:37;1.65;;;0.85;;
61905;SDS011;47863;55.766;37.672;2024-02-04T04:35:03;0.98;;;0.77;;
61905;SDS011;47863;55.766;37.672;2024-02-04T04:37:29;1.92;;;0.70;;
61905;SDS011;47863;55.766;37.672;2024-02-04T04:39:55;1.65;;;0.80;;
61905;SDS011;47863;55.766;37.672;2024-02-04T04:42:20;1.17;;;0.63;;
61905;SDS011;47863;55.766;37.672;2024-02-04T04:44:46;0.85;;;0.70;;
61905;SDS011;47863;55.766;37.672;2024-02-04T04:47:12;4.95;;;0.70;;
61905;SDS011;47863;55.766;37.672;2024-02-04T04:49:38;1.15;;;0.70;;
61905;SDS011;47863;55.766;37.672;2024-02-04T04:52:03;1.13;;;0.75;;
61905;SDS011;47863;55.766;37.672;2024-02-04T04:54:29;1.20;;;0.70;;
61905;SDS011;47863;55.766;37.672;2024-02-04T04:56:55;0.68;;;0.50;;
61905;SDS011;47863;55.766;37.672;2024-02-04T04:59:20;3.20;;;0.75;;
61905;SDS011;47863;55.766;37.672;2024-02-04T05:01:46;1.42;;;0.60;;
61905;SDS011;47863;55.766;37.672;2024-02-04T05:04:13;0.90;;;0.52;;
61905;SDS011;47863;55.766;37.672;2024-02-04T05:06:39;1.05;;;0.70;;
61905;SDS011;47863;55.766;37.672;2024-02-04T05:09:04;0.93;;;0.60;;
61905;SDS011;47863;55.766;37.672;2024-02-04T05:11:30;0.68;;;0.68;;
61905;SDS011;47863;55.766;37.672;2024-02-04T05:13:56;0.70;;;0.68;;
61905;SDS011;47863;55.766;37.672;2024-02-04T05:16:22;0.70;;;0.50;;
61905;SDS011;47863;55.766;37.672;2024-02-04T05:18:48;2.13;;;0.68;;
61905;SDS011;47863;55.766;37.672;2024-02-04T05:21:13;1.52;;;0.90;;
61905;SDS011;47863;55.766;37.672;2024-02-04T05:23:39;0.65;;;0.60;;
61905;SDS011;47863;55.766;37.672;2024-02-04T05:26:05;0.45;;;0.30;;
61905;SDS011;47863;55.766;37.672;2024-02-04T05:28:31;1.75;;;0.80;;
61905;SDS011;47863;55.766;37.672;2024-02-04T05:30:57;0.65;;;0.60;;
61905;SDS011;47863;55.766;37.672;2024-02-04T05:33:23;0.90;;;0.63;;
61905;SDS011;47863;55.766;37.672;2024-02-04T05:35:48;1.58;;;0.60;;
61905;SDS011;47863;55.766;37.672;2024-02-04T05:38:15;1.17;;;0.77;;
61905;SDS011;47863;55.766;37.672;2024-02-04T05:40:41;0.93;;;0.50;;
61905;SDS011;47863;55.766;37.672;2024-02-04T05:43:07;0.70;;;0.55;;
61905;SDS011;47863;55.766;37.672;2024-02-04T05:45:39;1.38;;;0.70;;
61905;SDS011;47863;55.766;37.672;2024-02-04T05:48:08;0.80;;;0.60;;
61905;SDS011;47863;55.766;37.672;2024-02-04T05:50:34;0.60;;;0.57;;
61905;SDS011;47863;55.766;37.672;2024-02-04T05:52:59;0.60;;;0.60;;
61905;SDS011;47863;55.766;37.672;2024-02-04T05:55:25;0.70;;;0.57;;
61905;SDS011;47863;55.766;37.672;2024-02-04T05:57:51;1.20;;;0.68;;
61905;SDS011;47863;55.766;37.672;2024-02-04T06:00:17;1.25;;;0.52;;
61905;SDS011;47863;55.766;37.672;2024-02-04T06:02:43;0.63;;;0.60;;
61905;SDS011;47863;55.766;37.672;2024-02-04T06:05:09;0.95;;;0.38;;
61905;SDS011;47863;55.766;37.672;2024-02-04T06:07:36;0.57;;;0.50;;
61905;SDS011;47863;55.766;37.672;2024-02-04T06:10:01;0.77;;;0.40;;
61905;SDS011;47863;55.766;37.672;2024-02-04T06:12:30;1.40;;;0.70;;
61905;SDS011;47863;55.766;37.672;2024-02-04T06:14:56;0.82;;;0.80;;
61905;SDS011;47863;55.766;37.672;2024-02-04T06:17:21;1.23;;;0.60;;
61905;SDS011;47863;55.766;37.672;2024-02-04T06:19:47;3.15;;;0.82;;
61905;SDS011;47863;55.766;37.672;2024-02-04T06:22:14;1.58;;;0.80;;
61905;SDS011;47863;55.766;37.672;2024-02-04T06:24:40;1.00;;;0.68;;
61905;SDS011;47863;55.766;37.672;2024-02-04T06:27:07;1.50;;;0.70;;
61905;SDS011;47863;55.766;37.672;2024-02-04T06:29:33;0.75;;;0.40;;
61905;SDS011;47863;55.766;37.672;2024-02-04T06:31:58;0.98;;;0.70;;
61905;SDS011;47863;55.766;37.672;2024-02-04T06:34:24;1.05;;;0.77;;
61905;SDS011;47863;55.766;37.672;2024-02-04T06:36:50;1.60;;;0.90;;
61905;SDS011;47863;55.766;37.672;2024-02-04T06:39:15;1.10;;;0.80;;
61905;SDS011;47863;55.766;37.672;2024-02-04T06:41:41;1.40;;;0.80;;
61905;SDS011;47863;55.766;37.672;2024-02-04T06:44:07;0.40;;;0.40;;
61905;SDS011;47863;55.766;37.672;2024-02-04T06:46:33;0.52;;;0.50;;
61905;SDS011;47863;55.766;37.672;2024-02-04T06:48:58;1.95;;;0.70;;
61905;SDS011;47863;55.766;37.672;2024-02-04T06:51:24;1.23;;;0.80;;
61905;SDS011;47863;55.766;37.672;2024-02-04T06:53:50;0.98;;;0.73;;
61905;SDS011;47863;55.766;37.672;2024-02-04T06:56:15;1.17;;;0.50;;
61905;SDS011;47863;55.766;37.672;2024-02-04T06:58:41;2.05;;;1.02;;
61905;SDS011;47863;55.766;37.672;2024-02-04T07:01:08;1.80;;;0.70;;
61905;SDS011;47863;55.766;37.672;2024-02-04T07:03:34;1.35;;;0.80;;
61905;SDS011;47863;55.766;37.672;2024-02-04T07:06:00;3.95;;;1.00;;
61905;SDS011;47863;55.766;37.672;2024-02-04T07:08:26;1.58;;;0.70;;
61905;SDS011;47863;55.766;37.672;2024-02-04T07:10:51;0.32;;;0.32;;
61905;SDS011;47863;55.766;37.672;2024-02-04T07:13:18;2.47;;;1.17;;
61905;SDS011;47863;55.766;37.672;2024-02-04T07:15:44;1.48;;;0.60;;
61905;SDS011;47863;55.766;37.672;2024-02-04T07:18:10;0.90;;;0.57;;
61905;SDS011;47863;55.766;37.672;2024-02-04T07:20:36;1.70;;;0.65;;
61905;SDS011;47863;55.766;37.672;2024-02-04T07:23:02;1.55;;;0.60;;
61905;SDS011;47863;55.766;37.672;2024-02-04T07:25:29;1.15;;;0.57;;
61905;SDS011;47863;55.766;37.672;2024-02-04T07:27:54;0.98;;;0.57;;
61905;SDS011;47863;55.766;37.672;2024-02-04T07:30:21;0.98;;;0.50;;
61905;SDS011;47863;55.766;37.672;2024-02-04T07:32:47;0.75;;;0.40;;
61905;SDS011;47863;55.766;37.672;2024-02-04T07:35:13;0.63;;;0.40;;
61905;SDS011;47863;55.766;37.672;2024-02-04T07:37:38;0.57;;;0.50;;
61905;SDS011;47863;55.766;37.672;2024-02-04T07:40:04;0.32;;;0.32;;
61905;SDS011;47863;55.766;37.672;2024-02-04T07:42:31;1.00;;;0.40;;
61905;SDS011;47863;55.766;37.672;2024-02-04T07:44:57;0.50;;;0.50;;
61905;SDS011;47863;55.766;37.672;2024-02-04T07:47:23;1.00;;;0.57;;
61905;SDS011;47863;55.766;37.672;2024-02-04T07:49:48;0.43;;;0.38;;
61905;SDS011;47863;55.766;37.672;2024-02-04T07:52:15;0.65;;;0.40;;
61905;SDS011;47863;55.766;37.672;2024-02-04T07:54:40;1.88;;;0.70;;
61905;SDS011;47863;55.766;37.672;2024-02-04T07:57:06;0.30;;;0.30;;
61905;SDS011;47863;55.766;37.672;2024-02-04T07:59:32;0.82;;;0.50;;
61905;SDS011;47863;55.766;37.672;2024-02-04T08:01:58;1.85;;;0.50;;
61905;SDS011;47863;55.766;37.672;2024-02-04T08:04:23;0.40;;;0.40;;
61905;SDS011;47863;55.766;37.672;2024-02-04T08:06:49;1.05;;;0.60;;
61905;SDS011;47863;55.766;37.672;2024-02-04T08:09:15;1.45;;;0.70;;
61905;SDS011;47863;55.766;37.672;2024-02-04T08:11:40;1.30;;;0.68;;
61905;SDS011;47863;55.766;37.672;2024-02-04T08:14:06;1.05;;;0.40;;
61905;SDS011;47863;55.766;37.672;2024-02-04T08:16:31;0.90;;;0.57;;
61905;SDS011;47863;55.766;37.672;2024-02-04T08:18:57;0.82;;;0.60;;
61905;SDS011;47863;55.766;37.672;2024-02-04T08:21:23;0.73;;;0.50;;
61905;SDS011;47863;55.766;37.672;2024-02-04T08:23:49;1.08;;;0.50;;
61905;SDS011;47863;55.766;37.672;2024-02-04T08:26:15;0.85;;;0.63;;
61905;SDS011;47863;55.766;37.672;2024-02-04T08:28:40;2.20;;;0.50;;
61905;SDS011;47863;55.766;37.672;2024-02-04T08:31:06;1.85;;;0.60;;
61905;SDS011;47863;55.766;37.672;2024-02-04T08:33:32;0.75;;;0.40;;
61905;SDS011;47863;55.766;37.672;2024-02-04T08:35:57;0.60;;;0.55;;
61905;SDS011;47863;55.766;37.672;2024-02-04T08:38:23;0.60;;;0.40;;
61905;SDS011;47863;55.766;37.672;2024-02-04T08:40:48;1.40;;;0.55;;
61905;SDS011;47863;55.766;37.672;2024-02-04T08:43:14;4.18;;;0.90;;
61905;SDS011;47863;55.766;37.672;2024-02-04T08:45:40;1.88;;;0.70;;
61905;SDS011;47863;55.766;37.672;2024-02-04T08:48:06;0.60;;;0.50;;
61905;SDS011;47863;55.766;37.672;2024-02-04T08:50:32;1.98;;;0.80;;
61905;SDS011;47863;55.766;37.672;2024-02-04T08:52:58;1.75;;;0.47;;
61905;SDS011;47863;55.766;37.672;2024-02-04T08:55:23;3.83;;;0.80;;
61905;SDS011;47863;55.766;37.672;2024-02-04T08:57:49;0.88;;;0.57;;
61905;SDS011;47863;55.766;37.672;2024-02-04T09:00:15;0.93;;;0.63;;
61905;SDS011;47863;55.766;37.672;2024-02-04T09:02:41;1.33;;;0.82;;
61905;SDS011;47863;55.766;37.672;2024-02-04T09:05:08;1.50;;;0.77;;
61905;SDS011;47863;55.766;37.672;2024-02-04T09:07:33;0.77;;;0.52;;
61905;SDS011;47863;55.766;37.672;2024-02-04T09:09:59;1.13;;;0.65;;
61905;SDS011;47863;55.766;37.672;2024-02-04T09:12:25;2.22;;;1.30;;
61905;SDS011;47863;55.766;37.672;2024-02-04T09:14:50;2.97;;;1.00;;
61905;SDS011;47863;55.766;37.672;2024-02-04T09:17:16;2.88;;;1.10;;
61905;SDS011;47863;55.766;37.672;2024-02-04T09:19:42;4.18;;;1.23;;
61905;SDS011;47863;55.766;37.672;2024-02-04T09:22:07;2.33;;;1.40;;
61905;SDS011;47863;55.766;37.672;2024-02-04T09:24:33;1.98;;;0.90;;
61905;SDS011;47863;55.766;37.672;2024-02-04T09:26:59;2.08;;;1.02;;
61905;SDS011;47863;55.766;37.672;2024-02-04T09:29:24;2.60;;;1.00;;
61905;SDS011;47863;55.766;37.672;2024-02-04T09:31:51;3.70;;;1.23;;
61905;SDS011;47863;55.766;37.672;2024-02-04T09:34:19;5.10;;;1.30;;
61905;SDS011;47863;55.766;37.672;2024-02-04T09:36:45;5.50;;;2.28;;
61905;SDS011;47863;55.766;37.672;2024-02-04T09:39:10;3.78;;;1.30;;
61905;SDS011;47863;55.766;37.672;2024-02-04T09:41:36;2.53;;;1.10;;
61905;SDS011;47863;55.766;37.672;2024-02-04T09:44:03;1.45;;;1.00;;
61905;SDS011;47863;55.766;37.672;2024-02-04T09:46:31;3.40;;;1.05;;
61905;SDS011;47863;55.766;37.672;2024-02-04T09:48:57;4.07;;;1.17;;
61905;SDS011;47863;55.766;37.672;2024-02-04T09:51:25;3.05;;;1.40;;
61905;SDS011;47863;55.766;37.672;2024-02-04T09:53:52;3.20;;;1.08;;
61905;SDS011;47863;55.766;37.672;2024-02-04T09:56:19;3.80;;;1.08;;
61905;SDS011;47863;55.766;37.672;2024-02-04T09:58:48;3.22;;;1.15;;
61905;SDS011;47863;55.766;37.672;2024-02-04T10:01:18;3.15;;;1.10;;
61905;SDS011;47863;55.766;37.672;2024-02-04T10:03:44;3.00;;;1.10;;
61905;SDS011;47863;55.766;37.672;2024-02-04T10:06:10;5.47;;;1.67;;
61905;SDS011;47863;55.766;37.672;2024-02-04T10:08:35;4.20;;;1.15;;
61905;SDS011;47863;55.766;37.672;2024-02-04T10:11:02;3.17;;;1.50;;
61905;SDS011;47863;55.766;37.672;2024-02-04T10:13:29;6.30;;;1.58;;
61905;SDS011;47863;55.766;37.672;2024-02-04T10:15:54;4.78;;;1.48;;
61905;SDS011;47863;55.766;37.672;2024-02-04T10:18:21;3.60;;;1.40;;
61905;SDS011;47863;55.766;37.672;2024-02-04T10:20:46;2.17;;;1.17;;
61905;SDS011;47863;55.766;37.672;2024-02-04T10:23:12;5.80;;;1.30;;
61905;SDS011;47863;55.766;37.672;2024-02-04T10:25:38;4.65;;;1.40;;
61905;SDS011;47863;55.766;37.672;2024-02-04T10:28:04;4.35;;;1.73;;
61905;SDS011;47863;55.766;37.672;2024-02-04T10:30:30;2.28;;;0.90;;
61905;SDS011;47863;55.766;37.672;2024-02-04T10:32:55;6.82;;;1.52;;
61905;SDS011;47863;55.766;37.672;2024-02-04T10:35:21;3.30;;;1.02;;
61905;SDS011;47863;55.766;37.672;2024-02-04T10:37:51;4.40;;;1.30;;
61905;SDS011;47863;55.766;37.672;2024-02-04T10:40:18;1.98;;;0.90;;
61905;SDS011;47863;55.766;37.672;2024-02-04T10:42:46;3.60;;;1.35;;
61905;SDS011;47863;55.766;37.672;2024-02-04T10:45:15;4.00;;;1.20;;
61905;SDS011;47863;55.766;37.672;2024-02-04T10:47:43;3.40;;;1.15;;
61905;SDS011;47863;55.766;37.672;2024-02-04T10:50:20;6.55;;;1.20;;
61905;SDS011;47863;55.766;37.672;2024-02-04T10:52:49;3.83;;;1.38;;
61905;SDS011;47863;55.766;37.672;2024-02-04T10:55:15;4.05;;;1.02;;
61905;SDS011;47863;55.766;37.672;2024-02-04T10:57:44;2.05;;;0.90;;
61905;SDS011;47863;55.766;37.672;2024-02-04T11:00:09;3.33;;;1.10;;
61905;SDS011;47863;55.766;37.672;2024-02-04T11:02:37;8.98;;;2.08;;
61905;SDS011;47863;55.766;37.672;2024-02-04T11:05:04;4.93;;;1.58;;
61905;SDS011;47863;55.766;37.672;2024-02-04T11:07:31;3.47;;;1.60;;
61905;SDS011;47863;55.766;37.672;2024-02-04T11:09:59;4.72;;;1.52;;
61905;SDS011;47863;55.766;37.672;2024-02-04T11:12:26;5.00;;;1.50;;
61905;SDS011;47863;55.766;37.672;2024-02-04T11:14:54;2.67;;;0.88;;
61905;SDS011;47863;55.766;37.672;2024-02-04T11:20:17;3.85;;;1.25;;
61905;SDS011;47863;55.766;37.672;2024-02-04T11:22:51;5.03;;;1.08;;
61905;SDS011;47863;55.766;37.672;2024-02-04T11:27:58;5.32;;;1.30;;
61905;SDS011;47863;55.766;37.672;2024-02-04T11:30:25;2.88;;;0.90;;
61905;SDS011;47863;55.766;37.672;2024-02-04T11:32:50;6.00;;;1.35;;
61905;SDS011;47863;55.766;37.672;2024-02-04T11:35:16;6.45;;;1.27;;
61905;SDS011;47863;55.766;37.672;2024-02-04T11:37:42;4.30;;;1.00;;
61905;SDS011;47863;55.766;37.672;2024-02-04T11:40:20;3.25;;;1.48;;
61905;SDS011;47863;55.766;37.672;2024-02-04T11:42:48;4.88;;;1.50;;
61905;SDS011;47863;55.766;37.672;2024-02-04T11:45:14;2.60;;;1.00;;
61905;SDS011;47863;55.766;37.672;2024-02-04T11:47:40;2.00;;;0.90;;
61905;SDS011;47863;55.766;37.672;2024-02-04T11:50:06;4.45;;;1.13;;
61905;SDS011;47863;55.766;37.672;2024-02-04T11:52:34;2.80;;;1.00;;
61905;SDS011;47863;55.766;37.672;2024-02-04T11:55:00;2.20;;;1.00;;
61905;SDS011;47863;55.766;37.672;2024-02-04T11:57:26;4.88;;;1.10;;
61905;SDS011;47863;55.766;37.672;2024-02-04T11:59:52;2.78;;;1.00;;
61905;SDS011;47863;55.766;37.672;2024-02-04T12:02:23;4.28;;;0.95;;
61905;SDS011;47863;55.766;37.672;2024-02-04T12:04:49;1.33;;;0.80;;
61905;SDS011;47863;55.766;37.672;2024-02-04T12:07:15;4.35;;;1.20;;
61905;SDS011;47863;55.766;37.672;2024-02-04T12:09:42;3.08;;;0.90;;
61905;SDS011;47863;55.766;37.672;2024-02-04T12:12:08;3.28;;;0.90;;
61905;SDS011;47863;55.766;37.672;2024-02-04T12:14:34;1.30;;;0.80;;
61905;SDS011;47863;55.766;37.672;2024-02-04T12:17:07;3.58;;;1.27;;
61905;SDS011;47863;55.766;37.672;2024-02-04T12:19:35;5.38;;;1.20;;
61905;SDS011;47863;55.766;37.672;2024-02-04T12:22:01;3.00;;;0.90;;
61905;SDS011;47863;55.766;37.672;2024-02-04T12:24:31;4.47;;;1.05;;
61905;SDS011;47863;55.766;37.672;2024-02-04T12:26:56;2.67;;;0.90;;
61905;SDS011;47863;55.766;37.672;2024-02-04T12:29:22;6.70;;;1.55;;
61905;SDS011;47863;55.766;37.672;2024-02-04T12:31:48;1.58;;;0.70;;
61905;SDS011;47863;55.766;37.672;2024-02-04T12:34:23;2.47;;;1.13;;
61905;SDS011;47863;55.766;37.672;2024-02-04T12:36:56;2.92;;;1.00;;
61905;SDS011;47863;55.766;37.672;2024-02-04T12:39:23;1.80;;;0.82;;
61905;SDS011;47863;55.766;37.672;2024-02-04T12:41:50;2.45;;;0.90;;
61905;SDS011;47863;55.766;37.672;2024-02-04T12:44:18;2.58;;;0.93;;
61905;SDS011;47863;55.766;37.672;2024-02-04T12:46:44;2.60;;;0.73;;
61905;SDS011;47863;55.766;37.672;2024-02-04T12:49:10;1.73;;;0.68;;
61905;SDS011;47863;55.766;37.672;2024-02-04T12:51:42;2.17;;;0.88;;
61905;SDS011;47863;55.766;37.672;2024-02-04T12:54:09;1.70;;;0.70;;
61905;SDS011;47863;55.766;37.672;2024-02-04T12:56:51;1.90;;;0.80;;
61905;SDS011;47863;55.766;37.672;2024-02-04T12:59:27;2.63;;;0.82;;
61905;SDS011;47863;55.766;37.672;2024-02-04T13:01:54;2.25;;;0.90;;
61905;SDS011;47863;55.766;37.672;2024-02-04T13:04:21;1.90;;;0.88;;
61905;SDS011;47863;55.766;37.672;2024-02-04T13:06:47;4.00;;;0.95;;
61905;SDS011;47863;55.766;37.672;2024-02-04T13:09:16;0.88;;;0.50;;
61905;SDS011;47863;55.766;37.672;2024-02-04T13:11:42;2.13;;;0.50;;
61905;SDS011;47863;55.766;37.672;2024-02-04T13:14:08;4.07;;;1.27;;
61905;SDS011;47863;55.766;37.672;2024-02-04T13:16:34;1.10;;;0.73;;
61905;SDS011;47863;55.766;37.672;2024-02-04T13:19:03;1.95;;;0.50;;
61905;SDS011;47863;55.766;37.672;2024-02-04T13:21:29;1.83;;;0.80;;
61905;SDS011;47863;55.766;37.672;2024-02-04T13:23:54;2.17;;;0.50;;
61905;SDS011;47863;55.766;37.672;2024-02-04T13:26:20;1.70;;;0.77;;
61905;SDS011;47863;55.766;37.672;2024-02-04T13:28:46;2.00;;;0.65;;
61905;SDS011;47863;55.766;37.672;2024-02-04T13:31:12;1.80;;;0.88;;
61905;SDS011;47863;55.766;37.672;2024-02-04T13:33:38;1.33;;;0.70;;
61905;SDS011;47863;55.766;37.672;2024-02-04T13:36:05;2.70;;;0.82;;
61905;SDS011;47863;55.766;37.672;2024-02-04T13:38:33;2.13;;;0.73;;
61905;SDS011;47863;55.766;37.672;2024-02-04T13:40:59;2.13;;;0.70;;
61905;SDS011;47863;55.766;37.672;2024-02-04T13:43:25;2.85;;;0.85;;
61905;SDS011;47863;55.766;37.672;2024-02-04T13:45:51;2.65;;;0.95;;
61905;SDS011;47863;55.766;37.672;2024-02-04T13:48:17;2.60;;;0.80;;
61905;SDS011;47863;55.766;37.672;2024-02-04T13:50:44;0.93;;;0.50;;
61905;SDS011;47863;55.766;37.672;2024-02-04T13:53:11;1.80;;;0.70;;
61905;SDS011;47863;55.766;37.672;2024-02-04T13:55:36;0.80;;;0.60;;
61905;SDS011;47863;55.766;37.672;2024-02-04T13:58:03;3.05;;;0.90;;
61905;SDS011;47863;55.766;37.672;2024-02-04T14:00:31;2.65;;;0.90;;
61905;SDS011;47863;55.766;37.672;2024-02-04T14:02:57;1.30;;;0.88;;
61905;SDS011;47863;55.766;37.672;2024-02-04T14:05:22;2.05;;;0.85;;
61905;SDS011;47863;55.766;37.672;2024-02-04T14:07:50;2.03;;;0.85;;
61905;SDS011;47863;55.766;37.672;2024-02-04T14:10:16;1.48;;;0.80;;
61905;SDS011;47863;55.766;37.672;2024-02-04T14:12:43;1.55;;;0.90;;
61905;SDS011;47863;55.766;37.672;2024-02-04T14:15:11;4.55;;;1.38;;
61905;SDS011;47863;55.766;37.672;2024-02-04T14:17:37;1.90;;;0.90;;
61905;SDS011;47863;55.766;37.672;2024-02-04T14:20:04;2.20;;;1.00;;
61905;SDS011;47863;55.766;37.672;2024-02-04T14:22:31;3.58;;;1.00;;
61905;SDS011;47863;55.766;37.672;2024-02-04T14:24:57;3.80;;;1.23;;
61905;SDS011;47863;55.766;37.672;2024-02-04T14:27:25;1.73;;;0.63;;
61905;SDS011;47863;55.766;37.672;2024-02-04T14:29:51;3.38;;;0.90;;
61905;SDS011;47863;55.766;37.672;2024-02-04T14:32:16;3.13;;;1.25;;
61905;SDS011;47863;55.766;37.672;2024-02-04T14:34:43;1.90;;;0.82;;
61905;SDS011;47863;55.766;37.672;2024-02-04T14:37:08;2.60;;;0.88;;